^^

Meteo Aereoporti Centro-Italia

 

 
LIRZ - Perugia S.Egidio (208 m.)
Dati ricevuti: 21/02/2018 07:00
Molto nuvoloso
Molto nuvoloso
 Vento da N
Vento: N 15 km/h
TEMPERATURA: 5°C
Raffreddamento da Vento: 2°C
P.to di Rugiada: 0°C
Umidità: 70%
Pressione: 1003 hPa
Nuvole: Molto nuvoloso
Visibilità: 10 km
Dettagli Nuvole: Poco nuvoloso 1067 m
Molto nuvoloso 1829 m
2018/02/21 06:00 LIRZ 210600Z 36008KT 9999 SCT035 BKN060 05/00 Q1003
 
LIPY - Ancona Falconara (12 m.)
Dati ricevuti: 21/02/2018 06:50
Pioggia debole, Molto Nuvoloso
Pioggia debole, Molto Nuvoloso
 Vento da E
Vento: E 7 km/h
TEMPERATURA: 5°C
Raffreddamento da Vento: 3°C
P.to di Rugiada: 2°C
Umidità: 81%
Pressione: 1006 hPa
Condizioni generali: Pioggia debole
Nuvole: Molto nuvoloso
Visibilità: 8 km
Dettagli Nuvole: Poco nuvoloso 305 m
Molto nuvoloso 610 m
2018/02/21 05:50 LIPY 210550Z 08004KT 040V120 8000 -RA SCT010 BKN020 05/02 Q1006
 
LIPR - Rimini Miramare (12 m.)
Dati ricevuti: 21/02/2018 07:45
Pioggia debole, Foschia, Molto Nuvoloso
Pioggia debole, Foschia, Molto Nuvoloso
 Vento da WNW
Vento: WNW 11 km/h
TEMPERATURA: 4°C
Raffreddamento da Vento: 1°C
P.to di Rugiada: 3°C
Umidità: 93%
Pressione: 1008 hPa
Condizioni generali: Pioggia debole, Foschia
Nuvole: Molto nuvoloso
Visibilità: 5 km
Dettagli Nuvole: Poco nuvoloso 914 m
Molto nuvoloso 1219 m
2018/02/21 06:45 LIPR 210645Z 29006KT 5000 -RA BR SCT030 BKN040 04/03 Q1008
 
LIRF - Roma Fiumicino (2 m.)
Dati ricevuti: 21/02/2018 07:50
Sereno
Sereno
 Vento da ENE
Vento: ENE 6 km/h
TEMPERATURA: 5°C
P.to di Rugiada: 1°C
Umidità: 76%
Pressione: 1001 hPa
Condizioni generali: Sereno
Visibilità: oltre 10 km
2018/02/21 06:50 LIRF 210650Z 06003KT CAVOK 05/01 Q1001 NOSIG
 
LIRA - Roma Ciampino (129 m.)
Dati ricevuti: 21/02/2018 07:50
Molto nuvoloso
Molto nuvoloso
 Vento da NNE
Vento: NNE 7 km/h
TEMPERATURA: 4°C
Raffreddamento da Vento: 2°C
P.to di Rugiada: 1°C
Umidità: 81%
Pressione: 1000 hPa
Nuvole: Molto nuvoloso
Visibilità: 10 km
Dettagli Nuvole: Molto nuvoloso 2438 m
2018/02/21 06:50 LIRA 210650Z 03004KT 350V070 9999 BKN080 04/01 Q1000
 
LIRU - Roma Urbe (17 m.)
Dati ricevuti: 20/02/2018 16:50
Dati non aggiornati
Qualche nuvola
Qualche nuvola
 Vento da W
Vento: W 13 km/h
TEMPERATURA: 11°C
P.to di Rugiada: 4°C
Umidità: 62%
Pressione: 1003 hPa
Nuvole: Qualche nuvola
Visibilità: 10 km
Dettagli Nuvole: Qualche nuvola 914 m
2018/02/20 15:50 LIRU 201550Z 27007KT 9999 FEW030 11/04 Q1003
 
LIVF - Frontone (570 m.)
Dati ricevuti: 21/02/2018 06:55
Nevischio, Freezing, Nebbia
Nevischio, Freezing, Nebbia
 Vento da W
Vento: W 11 km/h
TEMPERATURA: 0°C
Raffreddamento da Vento: -4°C
P.to di Rugiada: 0°C
Umidità: 100%
Pressione: 1004 hPa
Condizioni generali: Nevischio, Freezing, Nebbia
Visibilità: 0 km
2018/02/21 05:55 LIVF 210555Z 27006KT 0050 -SN FZFG VV/// M00/M00 Q1004 RMK MON INVIS VAL INVIS VIS MIN 0050
 
LIRQ - Firenze Peretola (40 m.)
Dati ricevuti: 21/02/2018 07:50
Qualche nuvola
Qualche nuvola
 Vento da direzione variabile
Vento: direzione variabile 7 km/h, Raffica: 30 km/h
TEMPERATURA: 6°C
Raffreddamento da Vento: 4°C
P.to di Rugiada: -2°C
Umidità: 57%
Pressione: 1005 hPa
Nuvole: Qualche nuvola
Visibilità: 10 km
Dettagli Nuvole: Qualche nuvola 1524 m
2018/02/21 06:50 LIRQ 210650Z VRB04G16KT 9999 FEW050 06/M02 Q1005
 
LIBP - Pescara (10 m.)
Dati ricevuti: 21/02/2018 06:50
Pioggia debole, Coperto
Pioggia debole, Coperto
 Vento da WNW
Vento: WNW 15 km/h
TEMPERATURA: 4°C
Raffreddamento da Vento: 1°C
P.to di Rugiada: 2°C
Umidità: 87%
Pressione: 1004 hPa
Condizioni generali: Pioggia debole
Nuvole: Coperto
Visibilità: 10 km
Dettagli Nuvole: Coperto 579 m
2018/02/21 05:50 LIBP 210550Z AUTO 29008KT 260V320 9999 -RA OVC019/// 04/02 Q1004
 
LIRV - Viterbo (300 m.)
Dati ricevuti: 21/02/2018 06:55
Qualche nuvola
Qualche nuvola
 Vento da NE
Vento: NE 31 km/h
TEMPERATURA: 3°C
Raffreddamento da Vento: -3°C
P.to di Rugiada: -1°C
Umidità: 75%
Pressione: 1001 hPa
Nuvole: Qualche nuvola
Visibilità: 10 km
Dettagli Nuvole: Qualche nuvola 549 m
2018/02/21 05:55 LIRV 210555Z 04017KT 9999 FEW018 03/M01 Q1001
 
LIQN - Rieti (389 m.)
Dati ricevuti: 20/02/2018 17:50
Dati non aggiornati
Pioviggine, Molto Nuvoloso
Pioviggine, Molto Nuvoloso
 Vento da E
Vento: E 9 km/h
TEMPERATURA: 4°C
Raffreddamento da Vento: 2°C
P.to di Rugiada: 3°C
Umidità: 93%
Pressione: 1002 hPa
Condizioni generali: Pioviggine
Nuvole: Molto nuvoloso
Visibilità: 7 km
Dettagli Nuvole: Molto nuvoloso 610 m
2018/02/20 16:50 LIQN 201650Z 09005KT 7000 3000E DZ BKN020 04/03 Q1002
 
LIRG - Guidonia -RM- (88 m.)
Dati ricevuti: 21/02/2018 06:55
Sereno
Sereno
 Vento da E
Vento: E 4 km/h
TEMPERATURA: 4°C
P.to di Rugiada: 3°C
Umidità: 93%
Pressione: 1001 hPa
Condizioni generali: Sereno
Visibilità: oltre 10 km
2018/02/21 05:55 LIRG 210555Z 10002KT CAVOK 04/03 Q1001
 
LIRK - Terminillo -RI-(1874 m.)
Dati ricevuti: 21/02/2018 06:55

 Vento da direzione variabile
Vento: direzione variabile 0 km/h
2018/02/21 05:55 LIRK 210555Z AUTO /////KT //// ///// Q////
 
LIPK - Forlì (27 m.)
Dati ricevuti: 20/02/2018 17:50
Dati non aggiornati
Pioggia debole, Neve, Molto Nuvoloso
Pioggia debole, Neve, Molto Nuvoloso
 Vento da direzione variabile
Vento: direzione variabile 6 km/h
TEMPERATURA: 2°C
P.to di Rugiada: -2°C
Umidità: 75%
Pressione: 1008 hPa
Condizioni generali: Pioggia debole, Neve
Nuvole: Molto nuvoloso
Visibilità: 3 km
Dettagli Nuvole: Molto nuvoloso 305 m
2018/02/20 16:50 LIPK 201650Z VRB03KT 3000 -RASN BKN010 02/M02 Q1008
 
LIRS - Grosseto (5 m.)
Dati ricevuti: 21/02/2018 06:55
Poco nuvoloso
Poco nuvoloso
 Vento da N
Vento: N 22 km/h
TEMPERATURA: 5°C
Raffreddamento da Vento: 1°C
P.to di Rugiada: 0°C
Umidità: 70%
Pressione: 1002 hPa
Nuvole: Poco nuvoloso
Visibilità: 10 km
Dettagli Nuvole: Poco nuvoloso 488 m
2018/02/21 05:55 LIRS 210555Z 01012KT 9999 SCT016 05/M00 Q1002
 
LIRP - Pisa S.Giusto (2 m.)
Dati ricevuti: 21/02/2018 07:45
Poco nuvoloso
Poco nuvoloso
 Vento da E
Vento: E 17 km/h
TEMPERATURA: 6°C
Raffreddamento da Vento: 3°C
P.to di Rugiada: -1°C
Umidità: 61%
Pressione: 1004 hPa
Nuvole: Poco nuvoloso
Visibilità: 10 km
Dettagli Nuvole: Qualche nuvola 762 m
Poco nuvoloso 1829 m
2018/02/21 06:45 LIRP 210645Z 08009KT 9999 FEW025 SCT060 06/M01 Q1004 TEMPO 07015G25KT